BVX177 ENGM-ENHD
Flight info
| Callsign | BVX177 |
|---|---|
| Flight time | 0h 38m |
| Altitude | 28000 |
| Route | ATLAP DCT IPMOD DCT ULVOS |
| Aircraft | A319/M-SDE3FGHIRWY/LB1 |
Departure
| Time | 2026-05-06 17:11 |
|---|---|
| Airport | Oslo-Gardermoen International Airport (ENGM) |
Arrival
| Time | 2026-05-06 17:49 |
|---|---|
| Airport | Haugesund Airport, Karmøy (ENHD) |
| Time | Latitude | Longitude | Altitude | Speed | Heading |
|---|---|---|---|---|---|
| 2026-05-06 16:47 | 60.19351 | 11.09129 | 682 ft | 0 kts | 196° |
| 2026-05-06 17:04 | 60.19374 | 11.09142 | 681 ft | 4 kts | 196° |
| 2026-05-06 17:04 | 60.19397 | 11.09155 | 682 ft | 1 kts | 196° |
| 2026-05-06 17:07 | 60.19397 | 11.09144 | 683 ft | 1 kts | 256° |
| 2026-05-06 17:07 | 60.19418 | 11.09101 | 685 ft | 13 kts | 311° |
| 2026-05-06 17:08 | 60.19481 | 11.08909 | 685 ft | 18 kts | 289° |
| 2026-05-06 17:08 | 60.19521 | 11.08627 | 677 ft | 20 kts | 285° |
| 2026-05-06 17:08 | 60.19631 | 11.08589 | 678 ft | 19 kts | 16° |
| 2026-05-06 17:08 | 60.19766 | 11.08667 | 679 ft | 21 kts | 15° |
| 2026-05-06 17:09 | 60.19912 | 11.08752 | 680 ft | 23 kts | 16° |
| 2026-05-06 17:09 | 60.20068 | 11.08843 | 681 ft | 23 kts | 17° |
| 2026-05-06 17:09 | 60.20199 | 11.08890 | 681 ft | 15 kts | 336° |
| 2026-05-06 17:09 | 60.20240 | 11.08683 | 678 ft | 18 kts | 287° |
| 2026-05-06 17:10 | 60.20270 | 11.08461 | 677 ft | 11 kts | 284° |
| 2026-05-06 17:10 | 60.20262 | 11.08391 | 677 ft | 3 kts | 198° |
| 2026-05-06 17:10 | 60.20212 | 11.08362 | 677 ft | 23 kts | 196° |
| 2026-05-06 17:10 | 60.19832 | 11.08142 | 675 ft | 91 kts | 196° |
| 2026-05-06 17:11 | 60.19013 | 11.07669 | 750 ft | 143 kts | 198° |
| 2026-05-06 17:11 | 60.18060 | 11.07098 | 1441 ft | 143 kts | 199° |
| 2026-05-06 17:11 | 60.17126 | 11.06455 | 2195 ft | 142 kts | 208° |
| 2026-05-06 17:11 | 60.16361 | 11.05259 | 2841 ft | 139 kts | 232° |
| 2026-05-06 17:12 | 60.15899 | 11.03580 | 3416 ft | 137 kts | 250° |
| 2026-05-06 17:12 | 60.15527 | 11.01808 | 3985 ft | 139 kts | 248° |
| 2026-05-06 17:12 | 60.15118 | 10.99899 | 4333 ft | 160 kts | 248° |
| 2026-05-06 17:12 | 60.14645 | 10.97700 | 4659 ft | 183 kts | 248° |
| 2026-05-06 17:13 | 60.14162 | 10.95172 | 4991 ft | 206 kts | 257° |
| 2026-05-06 17:13 | 60.13859 | 10.92227 | 5419 ft | 227 kts | 256° |
| 2026-05-06 17:13 | 60.13420 | 10.89013 | 5957 ft | 251 kts | 254° |
| 2026-05-06 17:13 | 60.12907 | 10.85592 | 6804 ft | 260 kts | 253° |
| 2026-05-06 17:14 | 60.12376 | 10.82093 | 7790 ft | 264 kts | 253° |
| 2026-05-06 17:14 | 60.11845 | 10.78537 | 8800 ft | 268 kts | 253° |
| 2026-05-06 17:14 | 60.11319 | 10.74928 | 9806 ft | 272 kts | 253° |
| 2026-05-06 17:14 | 60.10784 | 10.71202 | 10420 ft | 288 kts | 253° |
| 2026-05-06 17:15 | 60.10213 | 10.67184 | 10747 ft | 312 kts | 253° |
| 2026-05-06 17:15 | 60.09610 | 10.62858 | 11104 ft | 330 kts | 255° |
| 2026-05-06 17:15 | 60.09048 | 10.58408 | 11849 ft | 335 kts | 256° |
| 2026-05-06 17:15 | 60.08508 | 10.53864 | 12723 ft | 335 kts | 256° |
| 2026-05-06 17:16 | 60.07976 | 10.49312 | 13591 ft | 336 kts | 256° |
| 2026-05-06 17:16 | 60.07439 | 10.44750 | 14378 ft | 337 kts | 256° |
| 2026-05-06 17:16 | 60.06895 | 10.40186 | 15167 ft | 337 kts | 256° |
| 2026-05-06 17:16 | 60.06342 | 10.35626 | 15978 ft | 337 kts | 256° |
| 2026-05-06 17:17 | 60.05782 | 10.31061 | 16764 ft | 337 kts | 256° |
| 2026-05-06 17:17 | 60.05221 | 10.26479 | 17470 ft | 341 kts | 256° |
| 2026-05-06 17:17 | 60.04653 | 10.21854 | 18190 ft | 343 kts | 256° |
| 2026-05-06 17:17 | 60.04078 | 10.17201 | 18838 ft | 345 kts | 256° |
| 2026-05-06 17:18 | 60.03500 | 10.12527 | 19478 ft | 347 kts | 256° |
| 2026-05-06 17:18 | 60.02917 | 10.07834 | 20113 ft | 349 kts | 256° |
| 2026-05-06 17:18 | 60.02330 | 10.03110 | 20721 ft | 350 kts | 256° |
| 2026-05-06 17:18 | 60.01739 | 9.98377 | 21317 ft | 352 kts | 256° |
| 2026-05-06 17:19 | 60.01145 | 9.93634 | 21972 ft | 352 kts | 256° |
| 2026-05-06 17:19 | 60.00550 | 9.88883 | 22580 ft | 353 kts | 256° |
| 2026-05-06 17:19 | 59.99960 | 9.84186 | 23136 ft | 354 kts | 256° |
| 2026-05-06 17:19 | 59.99354 | 9.79404 | 23647 ft | 356 kts | 256° |
| 2026-05-06 17:20 | 59.98738 | 9.74600 | 24100 ft | 358 kts | 255° |
| 2026-05-06 17:20 | 59.98116 | 9.69760 | 24534 ft | 360 kts | 255° |
| 2026-05-06 17:20 | 59.97492 | 9.64898 | 24962 ft | 362 kts | 255° |
| 2026-05-06 17:20 | 59.96865 | 9.60013 | 25370 ft | 364 kts | 255° |
| 2026-05-06 17:21 | 59.96233 | 9.55103 | 25816 ft | 366 kts | 255° |
| 2026-05-06 17:21 | 59.95596 | 9.50174 | 26219 ft | 368 kts | 254° |
| 2026-05-06 17:21 | 59.94956 | 9.45230 | 26634 ft | 369 kts | 254° |
| 2026-05-06 17:21 | 59.94310 | 9.40254 | 27010 ft | 371 kts | 254° |
| 2026-05-06 17:22 | 59.93660 | 9.35260 | 27385 ft | 373 kts | 253° |
| 2026-05-06 17:22 | 59.93001 | 9.30242 | 27783 ft | 375 kts | 253° |
| 2026-05-06 17:22 | 59.92340 | 9.25213 | 27955 ft | 374 kts | 253° |
| 2026-05-06 17:22 | 59.91680 | 9.20214 | 27953 ft | 372 kts | 253° |
| 2026-05-06 17:23 | 59.91020 | 9.15225 | 27950 ft | 372 kts | 253° |
| 2026-05-06 17:23 | 59.90360 | 9.10246 | 27950 ft | 372 kts | 253° |
| 2026-05-06 17:23 | 59.89708 | 9.05335 | 27949 ft | 371 kts | 253° |
| 2026-05-06 17:23 | 59.89048 | 9.00362 | 27949 ft | 372 kts | 253° |
| 2026-05-06 17:24 | 59.88385 | 8.95390 | 27974 ft | 372 kts | 253° |
| 2026-05-06 17:24 | 59.87720 | 8.90417 | 27968 ft | 371 kts | 253° |
| 2026-05-06 17:24 | 59.87048 | 8.85447 | 27937 ft | 372 kts | 253° |
| 2026-05-06 17:24 | 59.86370 | 8.80466 | 27942 ft | 374 kts | 253° |
| 2026-05-06 17:25 | 59.85691 | 8.75476 | 27948 ft | 374 kts | 253° |
| 2026-05-06 17:25 | 59.85010 | 8.70477 | 27966 ft | 375 kts | 253° |
| 2026-05-06 17:25 | 59.84331 | 8.65491 | 27966 ft | 375 kts | 253° |
| 2026-05-06 17:25 | 59.83648 | 8.60490 | 27970 ft | 375 kts | 253° |
| 2026-05-06 17:26 | 59.82960 | 8.55480 | 27992 ft | 375 kts | 253° |
| 2026-05-06 17:26 | 59.82268 | 8.50487 | 27990 ft | 374 kts | 253° |
| 2026-05-06 17:26 | 59.81575 | 8.45500 | 27991 ft | 374 kts | 253° |
| 2026-05-06 17:27 | 59.80192 | 8.35545 | 28005 ft | 374 kts | 253° |
| 2026-05-06 17:27 | 59.79503 | 8.30571 | 27997 ft | 374 kts | 253° |
| 2026-05-06 17:27 | 59.78819 | 8.25660 | 27992 ft | 374 kts | 253° |
| 2026-05-06 17:27 | 59.78123 | 8.20691 | 27994 ft | 374 kts | 253° |
| 2026-05-06 17:28 | 59.77422 | 8.15728 | 27988 ft | 374 kts | 253° |
| 2026-05-06 17:28 | 59.76015 | 8.05814 | 28001 ft | 373 kts | 253° |
| 2026-05-06 17:28 | 59.75307 | 8.00852 | 28000 ft | 373 kts | 253° |
| 2026-05-06 17:29 | 59.74601 | 7.95902 | 27998 ft | 373 kts | 253° |
| 2026-05-06 17:29 | 59.73893 | 7.90957 | 27998 ft | 373 kts | 253° |
| 2026-05-06 17:29 | 59.73181 | 7.85998 | 28033 ft | 374 kts | 253° |
| 2026-05-06 17:30 | 59.71757 | 7.76104 | 28028 ft | 373 kts | 253° |
| 2026-05-06 17:30 | 59.70324 | 7.66233 | 28019 ft | 372 kts | 253° |
| 2026-05-06 17:31 | 59.68890 | 7.56378 | 28022 ft | 373 kts | 253° |
| 2026-05-06 17:31 | 59.68168 | 7.51438 | 27764 ft | 374 kts | 253° |
| 2026-05-06 17:31 | 59.67444 | 7.46501 | 27490 ft | 374 kts | 253° |
| 2026-05-06 17:31 | 59.66719 | 7.41591 | 27002 ft | 368 kts | 253° |
| 2026-05-06 17:32 | 59.66005 | 7.36767 | 26393 ft | 363 kts | 253° |
| 2026-05-06 17:32 | 59.65297 | 7.31993 | 25765 ft | 361 kts | 253° |
| 2026-05-06 17:32 | 59.64585 | 7.27202 | 25133 ft | 364 kts | 254° |
| 2026-05-06 17:32 | 59.63865 | 7.22383 | 24467 ft | 367 kts | 254° |
| 2026-05-06 17:33 | 59.63147 | 7.17592 | 23820 ft | 367 kts | 255° |
| 2026-05-06 17:33 | 59.62427 | 7.12776 | 23088 ft | 364 kts | 255° |
| 2026-05-06 17:33 | 59.61709 | 7.07989 | 22430 ft | 362 kts | 255° |
| 2026-05-06 17:33 | 59.60996 | 7.03246 | 21790 ft | 359 kts | 255° |
| 2026-05-06 17:34 | 59.60265 | 6.98550 | 21050 ft | 358 kts | 252° |
| 2026-05-06 17:34 | 59.59240 | 6.94026 | 20048 ft | 362 kts | 247° |
| 2026-05-06 17:34 | 59.58159 | 6.89509 | 19083 ft | 365 kts | 247° |
| 2026-05-06 17:34 | 59.57065 | 6.84997 | 18342 ft | 363 kts | 246° |
| 2026-05-06 17:35 | 59.55981 | 6.80549 | 17656 ft | 357 kts | 246° |
| 2026-05-06 17:35 | 59.54913 | 6.76180 | 17050 ft | 351 kts | 246° |
| 2026-05-06 17:35 | 59.53864 | 6.71885 | 16489 ft | 345 kts | 247° |
| 2026-05-06 17:36 | 59.51810 | 6.63467 | 15393 ft | 338 kts | 247° |
| 2026-05-06 17:36 | 59.50793 | 6.59294 | 14863 ft | 337 kts | 247° |
| 2026-05-06 17:36 | 59.49781 | 6.55149 | 14343 ft | 336 kts | 247° |
| 2026-05-06 17:36 | 59.48764 | 6.51006 | 13796 ft | 335 kts | 247° |
| 2026-05-06 17:37 | 59.47752 | 6.46893 | 13222 ft | 334 kts | 247° |
| 2026-05-06 17:37 | 59.47084 | 6.44182 | 12842 ft | 333 kts | 247° |
| 2026-05-06 17:37 | 59.45746 | 6.38751 | 12088 ft | 333 kts | 247° |
| 2026-05-06 17:37 | 59.44734 | 6.34649 | 11486 ft | 333 kts | 247° |
| 2026-05-06 17:38 | 59.43727 | 6.30578 | 11033 ft | 327 kts | 246° |
| 2026-05-06 17:38 | 59.42752 | 6.26665 | 10899 ft | 312 kts | 246° |
| 2026-05-06 17:38 | 59.41819 | 6.22925 | 10774 ft | 298 kts | 247° |
| 2026-05-06 17:38 | 59.41221 | 6.20525 | 10684 ft | 291 kts | 247° |
| 2026-05-06 17:39 | 59.40345 | 6.17027 | 10503 ft | 282 kts | 247° |
| 2026-05-06 17:39 | 59.39492 | 6.13610 | 10255 ft | 276 kts | 247° |
| 2026-05-06 17:39 | 59.38651 | 6.10242 | 10002 ft | 274 kts | 247° |
| 2026-05-06 17:39 | 59.37819 | 6.06897 | 9837 ft | 273 kts | 247° |
| 2026-05-06 17:40 | 59.36986 | 6.03552 | 9690 ft | 273 kts | 247° |
| 2026-05-06 17:40 | 59.36151 | 6.00213 | 9498 ft | 271 kts | 247° |
| 2026-05-06 17:40 | 59.35319 | 5.96899 | 9120 ft | 270 kts | 247° |
| 2026-05-06 17:40 | 59.34488 | 5.93598 | 8774 ft | 270 kts | 247° |
| 2026-05-06 17:41 | 59.33659 | 5.90309 | 8406 ft | 269 kts | 246° |
| 2026-05-06 17:41 | 59.32832 | 5.87031 | 8048 ft | 268 kts | 246° |
| 2026-05-06 17:41 | 59.32005 | 5.83764 | 7701 ft | 267 kts | 246° |
| 2026-05-06 17:41 | 59.31179 | 5.80506 | 7357 ft | 266 kts | 246° |
| 2026-05-06 17:42 | 59.30354 | 5.77260 | 7015 ft | 266 kts | 246° |
| 2026-05-06 17:42 | 59.29532 | 5.74033 | 6676 ft | 265 kts | 246° |
| 2026-05-06 17:42 | 59.28709 | 5.70809 | 6333 ft | 265 kts | 246° |
| 2026-05-06 17:42 | 59.27888 | 5.67597 | 5980 ft | 264 kts | 246° |
| 2026-05-06 17:43 | 59.27075 | 5.64415 | 5709 ft | 260 kts | 246° |
| 2026-05-06 17:43 | 59.26218 | 5.61276 | 5226 ft | 261 kts | 239° |
| 2026-05-06 17:43 | 59.25054 | 5.58626 | 4762 ft | 260 kts | 226° |
| 2026-05-06 17:43 | 59.23751 | 5.56136 | 4360 ft | 254 kts | 227° |
| 2026-05-06 17:44 | 59.22543 | 5.53823 | 4306 ft | 242 kts | 227° |
| 2026-05-06 17:44 | 59.21565 | 5.51204 | 4208 ft | 238 kts | 254° |
| 2026-05-06 17:44 | 59.21450 | 5.48076 | 4038 ft | 232 kts | 285° |
| 2026-05-06 17:44 | 59.22198 | 5.45381 | 3637 ft | 224 kts | 315° |
| 2026-05-06 17:45 | 59.23262 | 5.43295 | 3292 ft | 210 kts | 316° |
| 2026-05-06 17:45 | 59.24261 | 5.41327 | 2953 ft | 197 kts | 316° |
| 2026-05-06 17:45 | 59.25194 | 5.39475 | 2660 ft | 186 kts | 316° |
| 2026-05-06 17:45 | 59.26078 | 5.37718 | 2403 ft | 177 kts | 316° |
| 2026-05-06 17:46 | 59.26905 | 5.36072 | 2150 ft | 164 kts | 316° |
| 2026-05-06 17:46 | 59.27677 | 5.34538 | 1923 ft | 153 kts | 316° |
| 2026-05-06 17:46 | 59.28385 | 5.33124 | 1721 ft | 136 kts | 316° |
| 2026-05-06 17:46 | 59.29020 | 5.31851 | 1526 ft | 126 kts | 316° |
| 2026-05-06 17:47 | 59.29621 | 5.30648 | 1354 ft | 122 kts | 316° |
| 2026-05-06 17:47 | 59.30210 | 5.29470 | 1178 ft | 121 kts | 316° |
| 2026-05-06 17:47 | 59.30797 | 5.28296 | 997 ft | 120 kts | 315° |
| 2026-05-06 17:47 | 59.31381 | 5.27122 | 828 ft | 120 kts | 314° |
| 2026-05-06 17:48 | 59.31961 | 5.25952 | 666 ft | 120 kts | 313° |
| 2026-05-06 17:48 | 59.32543 | 5.24776 | 487 ft | 120 kts | 313° |
| 2026-05-06 17:48 | 59.33134 | 5.23603 | 315 ft | 121 kts | 313° |
| 2026-05-06 17:48 | 59.33729 | 5.22427 | 136 ft | 121 kts | 313° |
| 2026-05-06 17:49 | 59.34275 | 5.21342 | 86 ft | 90 kts | 314° |
| 2026-05-06 17:49 | 59.34502 | 5.20881 | 80 ft | 8 kts | 297° |
| 2026-05-06 17:49 | 59.34522 | 5.20839 | 82 ft | 2 kts | 71° |
| 2026-05-06 17:49 | 59.34499 | 5.20894 | 81 ft | 8 kts | 135° |
| 2026-05-06 17:50 | 59.34445 | 5.21002 | 87 ft | 14 kts | 135° |
| 2026-05-06 17:50 | 59.34363 | 5.21166 | 88 ft | 19 kts | 134° |
| 2026-05-06 17:50 | 59.34354 | 5.21318 | 88 ft | 13 kts | 46° |
| 2026-05-06 17:50 | 59.34411 | 5.21435 | 87 ft | 10 kts | 60° |
| 2026-05-06 17:51 | 59.34433 | 5.21526 | 89 ft | 4 kts | 46° |
| 2026-05-06 17:51 | 59.34449 | 5.21557 | 87 ft | 1 kts | 44° |
| 2026-05-06 17:51 | 59.34450 | 5.21558 | 87 ft | 0 kts | 44° |